sensor_id;sensor_type;location;lat;lon;timestamp;pressure;altitude;pressure_sealevel;temperature;humidity
67457;BME280;54319;52.038;4.640;2024-01-06T00:00:19;100472.25;;;4.59;100.00
67457;BME280;54319;52.038;4.640;2024-01-06T00:02:46;100466.69;;;4.61;100.00
67457;BME280;54319;52.038;4.640;2024-01-06T00:05:13;100479.81;;;4.64;100.00
67457;BME280;54319;52.038;4.640;2024-01-06T00:07:40;100472.97;;;4.53;100.00
67457;BME280;54319;52.038;4.640;2024-01-06T00:10:07;100461.22;;;4.46;100.00
67457;BME280;54319;52.038;4.640;2024-01-06T00:12:35;100437.59;;;4.25;100.00
67457;BME280;54319;52.038;4.640;2024-01-06T00:15:03;100505.16;;;4.63;100.00
67457;BME280;54319;52.038;4.640;2024-01-06T00:17:32;100496.41;;;4.61;100.00
67457;BME280;54319;52.038;4.640;2024-01-06T00:19:59;100473.06;;;4.45;100.00
67457;BME280;54319;52.038;4.640;2024-01-06T00:22:28;100492.72;;;4.54;100.00
67457;BME280;54319;52.038;4.640;2024-01-06T00:24:54;100507.00;;;4.62;100.00
67457;BME280;54319;52.038;4.640;2024-01-06T00:27:23;100497.28;;;4.53;100.00
67457;BME280;54319;52.038;4.640;2024-01-06T00:29:50;100508.41;;;4.58;100.00
67457;BME280;54319;52.038;4.640;2024-01-06T00:32:18;100493.66;;;4.46;100.00
67457;BME280;54319;52.038;4.640;2024-01-06T00:34:46;100508.75;;;4.55;100.00
67457;BME280;54319;52.038;4.640;2024-01-06T00:37:13;100511.28;;;4.57;100.00
67457;BME280;54319;52.038;4.640;2024-01-06T00:39:40;100492.13;;;4.43;100.00
67457;BME280;54319;52.038;4.640;2024-01-06T00:42:07;100514.47;;;4.60;100.00
67457;BME280;54319;52.038;4.640;2024-01-06T00:44:35;100514.66;;;4.59;100.00
67457;BME280;54319;52.038;4.640;2024-01-06T00:47:02;100520.22;;;4.57;100.00
67457;BME280;54319;52.038;4.640;2024-01-06T00:49:29;100524.59;;;4.58;100.00
67457;BME280;54319;52.038;4.640;2024-01-06T00:51:57;100502.78;;;4.45;100.00
67457;BME280;54319;52.038;4.640;2024-01-06T00:54:24;100529.56;;;4.55;100.00
67457;BME280;54319;52.038;4.640;2024-01-06T00:56:51;100530.88;;;4.59;100.00
67457;BME280;54319;52.038;4.640;2024-01-06T00:59:17;100537.66;;;4.55;100.00
67457;BME280;54319;52.038;4.640;2024-01-06T01:01:44;100537.16;;;4.51;100.00
67457;BME280;54319;52.038;4.640;2024-01-06T01:04:11;100543.72;;;4.57;100.00
67457;BME280;54319;52.038;4.640;2024-01-06T01:06:39;100550.66;;;4.51;100.00
67457;BME280;54319;52.038;4.640;2024-01-06T01:09:09;100545.13;;;4.44;100.00
67457;BME280;54319;52.038;4.640;2024-01-06T01:11:38;100543.38;;;4.52;100.00
67457;BME280;54319;52.038;4.640;2024-01-06T01:14:08;100553.16;;;4.53;100.00
67457;BME280;54319;52.038;4.640;2024-01-06T01:16:35;100559.44;;;4.53;100.00
67457;BME280;54319;52.038;4.640;2024-01-06T01:19:02;100558.56;;;4.53;100.00
67457;BME280;54319;52.038;4.640;2024-01-06T01:21:30;100566.69;;;4.53;100.00
67457;BME280;54319;52.038;4.640;2024-01-06T01:23:57;100558.84;;;4.43;100.00
67457;BME280;54319;52.038;4.640;2024-01-06T01:26:25;100576.47;;;4.54;100.00
67457;BME280;54319;52.038;4.640;2024-01-06T01:28:54;100583.22;;;4.58;100.00
67457;BME280;54319;52.038;4.640;2024-01-06T01:31:21;100570.81;;;4.40;100.00
67457;BME280;54319;52.038;4.640;2024-01-06T01:33:48;100591.50;;;4.56;100.00
67457;BME280;54319;52.038;4.640;2024-01-06T01:36:14;100590.31;;;4.59;100.00
67457;BME280;54319;52.038;4.640;2024-01-06T01:38:43;100598.06;;;4.54;100.00
67457;BME280;54319;52.038;4.640;2024-01-06T01:41:09;100591.84;;;4.53;100.00
67457;BME280;54319;52.038;4.640;2024-01-06T01:43:37;100597.25;;;4.53;100.00
67457;BME280;54319;52.038;4.640;2024-01-06T01:46:04;100598.44;;;4.51;100.00
67457;BME280;54319;52.038;4.640;2024-01-06T01:48:32;100605.88;;;4.48;100.00
67457;BME280;54319;52.038;4.640;2024-01-06T01:51:00;100601.69;;;4.46;100.00
67457;BME280;54319;52.038;4.640;2024-01-06T01:53:27;100609.59;;;4.47;100.00
67457;BME280;54319;52.038;4.640;2024-01-06T01:55:54;100606.59;;;4.42;100.00
67457;BME280;54319;52.038;4.640;2024-01-06T01:58:21;100609.13;;;4.44;100.00
67457;BME280;54319;52.038;4.640;2024-01-06T02:00:49;100599.22;;;4.36;100.00
67457;BME280;54319;52.038;4.640;2024-01-06T02:03:16;100610.97;;;4.43;100.00
67457;BME280;54319;52.038;4.640;2024-01-06T02:05:43;100613.06;;;4.33;100.00
67457;BME280;54319;52.038;4.640;2024-01-06T02:08:10;100600.66;;;4.15;100.00
67457;BME280;54319;52.038;4.640;2024-01-06T02:10:37;100605.22;;;4.15;100.00
67457;BME280;54319;52.038;4.640;2024-01-06T02:13:08;100633.16;;;4.30;100.00
67457;BME280;54319;52.038;4.640;2024-01-06T02:15:35;100641.44;;;4.29;100.00
67457;BME280;54319;52.038;4.640;2024-01-06T02:18:04;100643.13;;;4.30;100.00
67457;BME280;54319;52.038;4.640;2024-01-06T02:20:31;100645.69;;;4.23;100.00
67457;BME280;54319;52.038;4.640;2024-01-06T02:22:59;100613.16;;;4.08;100.00
67457;BME280;54319;52.038;4.640;2024-01-06T02:25:26;100648.22;;;4.25;100.00
67457;BME280;54319;52.038;4.640;2024-01-06T02:27:54;100653.25;;;4.28;100.00
67457;BME280;54319;52.038;4.640;2024-01-06T02:30:21;100660.38;;;4.20;100.00
67457;BME280;54319;52.038;4.640;2024-01-06T02:32:48;100656.00;;;4.19;100.00
67457;BME280;54319;52.038;4.640;2024-01-06T02:35:15;100656.06;;;4.03;100.00
67457;BME280;54319;52.038;4.640;2024-01-06T02:37:42;100659.38;;;4.13;100.00
67457;BME280;54319;52.038;4.640;2024-01-06T02:40:11;100670.72;;;4.09;100.00
67457;BME280;54319;52.038;4.640;2024-01-06T02:42:38;100680.66;;;4.08;100.00
67457;BME280;54319;52.038;4.640;2024-01-06T02:45:06;100677.97;;;4.08;100.00
67457;BME280;54319;52.038;4.640;2024-01-06T02:47:33;100663.16;;;3.96;100.00
67457;BME280;54319;52.038;4.640;2024-01-06T02:50:00;100688.44;;;4.03;100.00
67457;BME280;54319;52.038;4.640;2024-01-06T02:52:27;100649.38;;;3.82;100.00
67457;BME280;54319;52.038;4.640;2024-01-06T02:54:54;100690.31;;;4.02;100.00
67457;BME280;54319;52.038;4.640;2024-01-06T02:57:22;100684.06;;;4.02;100.00
67457;BME280;54319;52.038;4.640;2024-01-06T02:59:48;100681.19;;;4.03;100.00
67457;BME280;54319;52.038;4.640;2024-01-06T03:02:17;100677.47;;;3.96;100.00
67457;BME280;54319;52.038;4.640;2024-01-06T03:04:46;100703.94;;;4.09;100.00
67457;BME280;54319;52.038;4.640;2024-01-06T03:07:12;100700.22;;;4.10;100.00
67457;BME280;54319;52.038;4.640;2024-01-06T03:09:39;100700.09;;;4.03;100.00
67457;BME280;54319;52.038;4.640;2024-01-06T03:12:06;100705.66;;;4.02;100.00
67457;BME280;54319;52.038;4.640;2024-01-06T03:14:35;100705.50;;;4.03;100.00
67457;BME280;54319;52.038;4.640;2024-01-06T03:17:02;100705.00;;;4.00;100.00
67457;BME280;54319;52.038;4.640;2024-01-06T03:19:30;100702.47;;;3.98;100.00
67457;BME280;54319;52.038;4.640;2024-01-06T03:21:58;100714.59;;;4.02;100.00
67457;BME280;54319;52.038;4.640;2024-01-06T03:24:27;100708.34;;;4.02;100.00
67457;BME280;54319;52.038;4.640;2024-01-06T03:26:54;100714.59;;;4.02;100.00
67457;BME280;54319;52.038;4.640;2024-01-06T03:29:21;100710.91;;;4.03;100.00
67457;BME280;54319;52.038;4.640;2024-01-06T03:31:49;100706.16;;;3.97;100.00
67457;BME280;54319;52.038;4.640;2024-01-06T03:34:16;100711.91;;;4.02;100.00
67457;BME280;54319;52.038;4.640;2024-01-06T03:36:43;100719.84;;;3.96;100.00
67457;BME280;54319;52.038;4.640;2024-01-06T03:39:10;100718.16;;;3.95;100.00
67457;BME280;54319;52.038;4.640;2024-01-06T03:41:38;100722.34;;;3.97;100.00
67457;BME280;54319;52.038;4.640;2024-01-06T03:44:06;100732.31;;;3.97;100.00
67457;BME280;54319;52.038;4.640;2024-01-06T03:46:34;100736.56;;;3.99;100.00
67457;BME280;54319;52.038;4.640;2024-01-06T03:49:03;100726.94;;;3.97;100.00
67457;BME280;54319;52.038;4.640;2024-01-06T03:51:30;100750.38;;;4.04;100.00
67457;BME280;54319;52.038;4.640;2024-01-06T03:53:57;100750.19;;;3.98;100.00
67457;BME280;54319;52.038;4.640;2024-01-06T03:56:24;100753.56;;;4.00;100.00
67457;BME280;54319;52.038;4.640;2024-01-06T03:58:51;100749.53;;;3.96;100.00
67457;BME280;54319;52.038;4.640;2024-01-06T04:01:17;100755.94;;;3.95;100.00
67457;BME280;54319;52.038;4.640;2024-01-06T04:03:44;100754.25;;;3.94;100.00
67457;BME280;54319;52.038;4.640;2024-01-06T04:06:12;100763.38;;;3.93;100.00
67457;BME280;54319;52.038;4.640;2024-01-06T04:08:39;100763.88;;;3.88;100.00
67457;BME280;54319;52.038;4.640;2024-01-06T04:11:06;100767.25;;;3.90;100.00
67457;BME280;54319;52.038;4.640;2024-01-06T04:13:33;100775.53;;;3.88;100.00
67457;BME280;54319;52.038;4.640;2024-01-06T04:16:00;100782.75;;;3.88;100.00
67457;BME280;54319;52.038;4.640;2024-01-06T04:18:27;100781.28;;;3.85;100.00
67457;BME280;54319;52.038;4.640;2024-01-06T04:20:54;100786.66;;;3.85;100.00
67457;BME280;54319;52.038;4.640;2024-01-06T04:23:22;100784.31;;;3.82;100.00
67457;BME280;54319;52.038;4.640;2024-01-06T04:25:49;100782.28;;;3.84;100.00
67457;BME280;54319;52.038;4.640;2024-01-06T04:28:18;100792.06;;;3.85;100.00
67457;BME280;54319;52.038;4.640;2024-01-06T04:30:44;100776.72;;;3.69;100.00
67457;BME280;54319;52.038;4.640;2024-01-06T04:33:12;100792.91;;;3.78;100.00
67457;BME280;54319;52.038;4.640;2024-01-06T04:35:39;100802.69;;;3.79;100.00
67457;BME280;54319;52.038;4.640;2024-01-06T04:38:06;100806.22;;;3.79;100.00
67457;BME280;54319;52.038;4.640;2024-01-06T04:40:34;100797.78;;;3.74;100.00
67457;BME280;54319;52.038;4.640;2024-01-06T04:43:00;100801.00;;;3.78;100.00
67457;BME280;54319;52.038;4.640;2024-01-06T04:45:28;100801.16;;;3.76;100.00
67457;BME280;54319;52.038;4.640;2024-01-06T04:47:55;100818.38;;;3.83;100.00
67457;BME280;54319;52.038;4.640;2024-01-06T04:50:21;100810.25;;;3.75;100.00
67457;BME280;54319;52.038;4.640;2024-01-06T04:52:48;100792.38;;;3.57;100.00
67457;BME280;54319;52.038;4.640;2024-01-06T04:55:15;100806.22;;;3.71;100.00
67457;BME280;54319;52.038;4.640;2024-01-06T04:57:43;100814.63;;;3.68;100.00
67457;BME280;54319;52.038;4.640;2024-01-06T05:00:11;100817.34;;;3.68;100.00
67457;BME280;54319;52.038;4.640;2024-01-06T05:02:38;100814.81;;;3.66;100.00
67457;BME280;54319;52.038;4.640;2024-01-06T05:05:06;100817.69;;;3.65;100.00
67457;BME280;54319;52.038;4.640;2024-01-06T05:07:33;100821.03;;;3.67;100.00
67457;BME280;54319;52.038;4.640;2024-01-06T05:10:00;100799.47;;;3.50;100.00
67457;BME280;54319;52.038;4.640;2024-01-06T05:12:27;100821.22;;;3.65;100.00
67457;BME280;54319;52.038;4.640;2024-01-06T05:14:55;100828.47;;;3.65;100.00
67457;BME280;54319;52.038;4.640;2024-01-06T05:17:22;100845.31;;;3.67;100.00
67457;BME280;54319;52.038;4.640;2024-01-06T05:19:49;100835.53;;;3.66;100.00
67457;BME280;54319;52.038;4.640;2024-01-06T05:22:16;100825.09;;;3.54;100.00
67457;BME280;54319;52.038;4.640;2024-01-06T05:24:42;100838.44;;;3.64;100.00
67457;BME280;54319;52.038;4.640;2024-01-06T05:27:09;100844.84;;;3.63;100.00
67457;BME280;54319;52.038;4.640;2024-01-06T05:29:36;100845.66;;;3.64;100.00
67457;BME280;54319;52.038;4.640;2024-01-06T05:32:05;100845.66;;;3.64;100.00
67457;BME280;54319;52.038;4.640;2024-01-06T05:34:32;100851.06;;;3.64;100.00
67457;BME280;54319;52.038;4.640;2024-01-06T05:36:59;100851.53;;;3.59;100.00
67457;BME280;54319;52.038;4.640;2024-01-06T05:39:27;100848.69;;;3.60;100.00
67457;BME280;54319;52.038;4.640;2024-01-06T05:41:54;100855.44;;;3.56;100.00
67457;BME280;54319;52.038;4.640;2024-01-06T05:44:20;100858.66;;;3.60;100.00
67457;BME280;54319;52.038;4.640;2024-01-06T05:46:47;100852.88;;;3.55;100.00
67457;BME280;54319;52.038;4.640;2024-01-06T05:49:16;100836.22;;;3.43;100.00
67457;BME280;54319;52.038;4.640;2024-01-06T05:51:44;100862.34;;;3.59;100.00
67457;BME280;54319;52.038;4.640;2024-01-06T05:54:12;100874.31;;;3.56;100.00
67457;BME280;54319;52.038;4.640;2024-01-06T05:56:39;100872.78;;;3.54;100.00
67457;BME280;54319;52.038;4.640;2024-01-06T05:59:07;100884.09;;;3.57;100.00
67457;BME280;54319;52.038;4.640;2024-01-06T06:01:34;100881.06;;;3.52;100.00
67457;BME280;54319;52.038;4.640;2024-01-06T06:04:01;100896.91;;;3.55;100.00
67457;BME280;54319;52.038;4.640;2024-01-06T06:06:30;100877.50;;;3.43;100.00
67457;BME280;54319;52.038;4.640;2024-01-06T06:08:56;100900.28;;;3.57;100.00
67457;BME280;54319;52.038;4.640;2024-01-06T06:11:23;100908.03;;;3.52;100.00
67457;BME280;54319;52.038;4.640;2024-01-06T06:13:50;100855.69;;;3.20;100.00
67457;BME280;54319;52.038;4.640;2024-01-06T06:16:17;100917.97;;;3.52;100.00
67457;BME280;54319;52.038;4.640;2024-01-06T06:18:44;100915.44;;;3.50;100.00
67457;BME280;54319;52.038;4.640;2024-01-06T06:21:11;100925.22;;;3.51;100.00
67457;BME280;54319;52.038;4.640;2024-01-06T06:23:39;100928.41;;;3.46;100.00
67457;BME280;54319;52.038;4.640;2024-01-06T06:26:06;100927.56;;;3.46;100.00
67457;BME280;54319;52.038;4.640;2024-01-06T06:28:33;100901.72;;;3.27;100.00
67457;BME280;54319;52.038;4.640;2024-01-06T06:31:00;100937.69;;;3.52;100.00
67457;BME280;54319;52.038;4.640;2024-01-06T06:33:27;100945.78;;;3.52;100.00
67457;BME280;54319;52.038;4.640;2024-01-06T06:35:54;100944.25;;;3.50;100.00
67457;BME280;54319;52.038;4.640;2024-01-06T06:38:20;100948.50;;;3.52;100.00
67457;BME280;54319;52.038;4.640;2024-01-06T06:40:49;100944.94;;;3.52;100.00
67457;BME280;54319;52.038;4.640;2024-01-06T06:43:15;100949.50;;;3.51;100.00
67457;BME280;54319;52.038;4.640;2024-01-06T06:45:42;100956.91;;;3.49;100.00
67457;BME280;54319;52.038;4.640;2024-01-06T06:48:10;100957.59;;;3.51;100.00
67457;BME280;54319;52.038;4.640;2024-01-06T06:50:36;100956.84;;;3.41;100.00
67457;BME280;54319;52.038;4.640;2024-01-06T06:53:03;100964.00;;;3.50;100.00
67457;BME280;54319;52.038;4.640;2024-01-06T06:55:30;100955.69;;;3.43;100.00
67457;BME280;54319;52.038;4.640;2024-01-06T06:57:58;100973.59;;;3.53;100.00
67457;BME280;54319;52.038;4.640;2024-01-06T07:00:25;100961.28;;;3.42;100.00
67457;BME280;54319;52.038;4.640;2024-01-06T07:02:52;100966.59;;;3.33;100.00
67457;BME280;54319;52.038;4.640;2024-01-06T07:05:19;100981.50;;;3.46;100.00
67457;BME280;54319;52.038;4.640;2024-01-06T07:07:46;100988.91;;;3.44;100.00
67457;BME280;54319;52.038;4.640;2024-01-06T07:10:13;100987.75;;;3.46;100.00
67457;BME280;54319;52.038;4.640;2024-01-06T07:12:40;100995.00;;;3.46;100.00
67457;BME280;54319;52.038;4.640;2024-01-06T07:15:09;100898.94;;;2.75;100.00
67457;BME280;54319;52.038;4.640;2024-01-06T07:17:36;101010.31;;;3.45;100.00
67457;BME280;54319;52.038;4.640;2024-01-06T07:20:05;101003.88;;;3.38;100.00
67457;BME280;54319;52.038;4.640;2024-01-06T07:22:33;101004.56;;;3.40;100.00
67457;BME280;54319;52.038;4.640;2024-01-06T07:25:01;101007.41;;;3.39;100.00
67457;BME280;54319;52.038;4.640;2024-01-06T07:27:27;101020.97;;;3.47;100.00
67457;BME280;54319;52.038;4.640;2024-01-06T07:29:55;101030.38;;;3.43;100.00
67457;BME280;54319;52.038;4.640;2024-01-06T07:32:24;101011.41;;;3.26;100.00
67457;BME280;54319;52.038;4.640;2024-01-06T07:34:50;101038.84;;;3.48;100.00
67457;BME280;54319;52.038;4.640;2024-01-06T07:37:17;101040.16;;;3.44;100.00
67457;BME280;54319;52.038;4.640;2024-01-06T07:39:45;101038.16;;;3.46;100.00
67457;BME280;54319;52.038;4.640;2024-01-06T07:42:11;101047.88;;;3.39;100.00
67457;BME280;54319;52.038;4.640;2024-01-06T07:44:38;101047.88;;;3.39;100.00
67457;BME280;54319;52.038;4.640;2024-01-06T07:47:05;101050.56;;;3.39;100.00
67457;BME280;54319;52.038;4.640;2024-01-06T07:49:33;101063.59;;;3.43;100.00
67457;BME280;54319;52.038;4.640;2024-01-06T07:52:00;101044.44;;;3.28;100.00
67457;BME280;54319;52.038;4.640;2024-01-06T07:54:27;101053.53;;;3.27;100.00
67457;BME280;54319;52.038;4.640;2024-01-06T07:56:54;101073.84;;;3.40;100.00
67457;BME280;54319;52.038;4.640;2024-01-06T07:59:21;101085.34;;;3.42;100.00
67457;BME280;54319;52.038;4.640;2024-01-06T08:01:48;101077.25;;;3.42;100.00
67457;BME280;54319;52.038;4.640;2024-01-06T08:04:15;101087.31;;;3.40;100.00
67457;BME280;54319;52.038;4.640;2024-01-06T08:06:43;101082.78;;;3.40;100.00
67457;BME280;54319;52.038;4.640;2024-01-06T08:09:09;101081.19;;;3.29;100.00
67457;BME280;54319;52.038;4.640;2024-01-06T08:11:36;101094.72;;;3.38;100.00
67457;BME280;54319;52.038;4.640;2024-01-06T08:14:03;101052.75;;;3.09;100.00
67457;BME280;54319;52.038;4.640;2024-01-06T08:16:30;101107.88;;;3.41;100.00
67457;BME280;54319;52.038;4.640;2024-01-06T08:18:57;101106.91;;;3.42;100.00
67457;BME280;54319;52.038;4.640;2024-01-06T08:21:24;101073.69;;;3.15;100.00
67457;BME280;54319;52.038;4.640;2024-01-06T08:23:53;101117.38;;;3.45;100.00
67457;BME280;54319;52.038;4.640;2024-01-06T08:26:20;101114.13;;;3.41;100.00
67457;BME280;54319;52.038;4.640;2024-01-06T08:28:47;101112.31;;;3.42;100.00
67457;BME280;54319;52.038;4.640;2024-01-06T08:31:14;101123.78;;;3.44;100.00
67457;BME280;54319;52.038;4.640;2024-01-06T08:33:40;101127.31;;;3.44;100.00
67457;BME280;54319;52.038;4.640;2024-01-06T08:36:07;101128.16;;;3.45;100.00
67457;BME280;54319;52.038;4.640;2024-01-06T08:38:34;101136.09;;;3.46;100.00
67457;BME280;54319;52.038;4.640;2024-01-06T08:41:03;101136.41;;;3.43;100.00
67457;BME280;54319;52.038;4.640;2024-01-06T08:43:30;101108.03;;;3.13;100.00
67457;BME280;54319;52.038;4.640;2024-01-06T08:45:57;101145.03;;;3.47;100.00
67457;BME280;54319;52.038;4.640;2024-01-06T08:48:23;101139.66;;;3.47;100.00
67457;BME280;54319;52.038;4.640;2024-01-06T08:50:50;101116.41;;;3.28;100.00
67457;BME280;54319;52.038;4.640;2024-01-06T08:53:17;101141.13;;;3.41;100.00
67457;BME280;54319;52.038;4.640;2024-01-06T08:55:43;101145.66;;;3.41;100.00
67457;BME280;54319;52.038;4.640;2024-01-06T08:58:11;101161.00;;;3.40;100.00
67457;BME280;54319;52.038;4.640;2024-01-06T09:00:38;101157.75;;;3.37;100.00
67457;BME280;54319;52.038;4.640;2024-01-06T09:03:07;101162.84;;;3.40;100.00
67457;BME280;54319;52.038;4.640;2024-01-06T09:05:54;101167.94;;;3.43;100.00
67457;BME280;54319;52.038;4.640;2024-01-06T09:08:21;101162.63;;;3.33;100.00
67457;BME280;54319;52.038;4.640;2024-01-06T09:10:49;101185.50;;;3.47;100.00
67457;BME280;54319;52.038;4.640;2024-01-06T09:13:19;101180.09;;;3.47;100.00
67457;BME280;54319;52.038;4.640;2024-01-06T09:15:47;101177.19;;;3.40;100.00
67457;BME280;54319;52.038;4.640;2024-01-06T09:18:14;101178.41;;;3.46;100.00
67457;BME280;54319;52.038;4.640;2024-01-06T09:20:43;101166.34;;;3.32;100.00
67457;BME280;54319;52.038;4.640;2024-01-06T09:23:10;101184.22;;;3.33;100.00
67457;BME280;54319;52.038;4.640;2024-01-06T09:25:36;101193.69;;;3.37;100.00
67457;BME280;54319;52.038;4.640;2024-01-06T09:28:05;101182.44;;;3.24;100.00
67457;BME280;54319;52.038;4.640;2024-01-06T09:30:33;101171.44;;;3.17;100.00
67457;BME280;54319;52.038;4.640;2024-01-06T09:33:01;101214.78;;;3.42;100.00
67457;BME280;54319;52.038;4.640;2024-01-06T09:35:28;101205.84;;;3.41;100.00
67457;BME280;54319;52.038;4.640;2024-01-06T09:37:55;101220.66;;;3.37;100.00
67457;BME280;54319;52.038;4.640;2024-01-06T09:40:23;101192.22;;;3.25;100.00
67457;BME280;54319;52.038;4.640;2024-01-06T09:42:50;101218.31;;;3.42;100.00
67457;BME280;54319;52.038;4.640;2024-01-06T09:45:17;101230.81;;;3.43;100.00
67457;BME280;54319;52.038;4.640;2024-01-06T09:47:49;101235.75;;;3.48;100.00
67457;BME280;54319;52.038;4.640;2024-01-06T09:50:18;101227.56;;;3.40;100.00
67457;BME280;54319;52.038;4.640;2024-01-06T09:52:46;101236.56;;;3.48;100.00
67457;BME280;54319;52.038;4.640;2024-01-06T09:55:23;101246.22;;;3.51;100.00
67457;BME280;54319;52.038;4.640;2024-01-06T09:57:52;101225.41;;;3.43;100.00
67457;BME280;54319;52.038;4.640;2024-01-06T10:00:19;101255.75;;;3.64;100.00
67457;BME280;54319;52.038;4.640;2024-01-06T10:02:48;101259.16;;;3.66;100.00
67457;BME280;54319;52.038;4.640;2024-01-06T10:05:16;101228.84;;;3.54;100.00
67457;BME280;54319;52.038;4.640;2024-01-06T10:07:43;101230.03;;;3.51;100.00
67457;BME280;54319;52.038;4.640;2024-01-06T10:10:10;101248.22;;;3.67;100.00
67457;BME280;54319;52.038;4.640;2024-01-06T10:12:41;101261.75;;;3.75;100.00
67457;BME280;54319;52.038;4.640;2024-01-06T10:15:09;101256.00;;;3.70;100.00
67457;BME280;54319;52.038;4.640;2024-01-06T10:17:37;101253.75;;;3.66;100.00
67457;BME280;54319;52.038;4.640;2024-01-06T10:20:09;101269.75;;;3.85;100.00
67457;BME280;54319;52.038;4.640;2024-01-06T10:22:36;101275.00;;;3.87;100.00
67457;BME280;54319;52.038;4.640;2024-01-06T10:25:05;101270.59;;;3.86;100.00
67457;BME280;54319;52.038;4.640;2024-01-06T10:27:33;101276.00;;;3.86;100.00
67457;BME280;54319;52.038;4.640;2024-01-06T10:30:05;101280.69;;;3.84;100.00
67457;BME280;54319;52.038;4.640;2024-01-06T10:32:35;101268.84;;;3.76;100.00
67457;BME280;54319;52.038;4.640;2024-01-06T10:35:03;101246.91;;;3.53;100.00
67457;BME280;54319;52.038;4.640;2024-01-06T10:37:41;101283.44;;;3.66;100.00
67457;BME280;54319;52.038;4.640;2024-01-06T10:40:09;101289.13;;;3.62;100.00
67457;BME280;54319;52.038;4.640;2024-01-06T10:42:39;101291.53;;;3.66;100.00
67457;BME280;54319;52.038;4.640;2024-01-06T10:45:07;101269.88;;;3.57;100.00
67457;BME280;54319;52.038;4.640;2024-01-06T10:47:35;101314.66;;;3.68;100.00
67457;BME280;54319;52.038;4.640;2024-01-06T10:50:02;101289.19;;;3.71;100.00
67457;BME280;54319;52.038;4.640;2024-01-06T10:52:29;101309.41;;;3.67;100.00
67457;BME280;54319;52.038;4.640;2024-01-06T10:54:58;101292.47;;;3.56;100.00
67457;BME280;54319;52.038;4.640;2024-01-06T10:57:26;101309.09;;;3.70;100.00
67457;BME280;54319;52.038;4.640;2024-01-06T10:59:58;101306.00;;;3.65;100.00
67457;BME280;54319;52.038;4.640;2024-01-06T11:02:25;101312.28;;;3.65;100.00
67457;BME280;54319;52.038;4.640;2024-01-06T11:04:52;101308.41;;;3.68;100.00
67457;BME280;54319;52.038;4.640;2024-01-06T11:07:20;101310.97;;;3.69;100.00
67457;BME280;54319;52.038;4.640;2024-01-06T11:09:50;101314.19;;;3.73;100.00
67457;BME280;54319;52.038;4.640;2024-01-06T11:12:20;101305.38;;;3.71;100.00
67457;BME280;54319;52.038;4.640;2024-01-06T11:14:47;101316.50;;;3.68;100.00
67457;BME280;54319;52.038;4.640;2024-01-06T11:17:49;101314.50;;;3.70;100.00
67457;BME280;54319;52.038;4.640;2024-01-06T11:20:15;101310.78;;;3.71;100.00
67457;BME280;54319;52.038;4.640;2024-01-06T11:22:42;101320.13;;;3.76;100.00
67457;BME280;54319;52.038;4.640;2024-01-06T11:25:14;101298.53;;;3.58;100.00
67457;BME280;54319;52.038;4.640;2024-01-06T11:27:45;101324.59;;;3.68;100.00
67457;BME280;54319;52.038;4.640;2024-01-06T11:30:20;101326.16;;;3.70;100.00
67457;BME280;54319;52.038;4.640;2024-01-06T11:32:51;101329.28;;;3.66;100.00
67457;BME280;54319;52.038;4.640;2024-01-06T11:35:19;101329.84;;;3.69;100.00
67457;BME280;54319;52.038;4.640;2024-01-06T11:37:54;101308.09;;;3.53;100.00
67457;BME280;54319;52.038;4.640;2024-01-06T11:40:31;101331.31;;;3.64;100.00
67457;BME280;54319;52.038;4.640;2024-01-06T11:43:02;101333.31;;;3.61;100.00
67457;BME280;54319;52.038;4.640;2024-01-06T11:45:30;101302.19;;;3.49;100.00
67457;BME280;54319;52.038;4.640;2024-01-06T11:48:00;101331.84;;;3.67;100.00
67457;BME280;54319;52.038;4.640;2024-01-06T11:50:29;101327.59;;;3.65;100.00
67457;BME280;54319;52.038;4.640;2024-01-06T11:52:56;101324.13;;;3.72;100.00
67457;BME280;54319;52.038;4.640;2024-01-06T11:55:25;101325.28;;;3.70;100.00
67457;BME280;54319;52.038;4.640;2024-01-06T11:57:53;101331.38;;;3.72;100.00
67457;BME280;54319;52.038;4.640;2024-01-06T12:00:23;101332.94;;;3.74;100.00
67457;BME280;54319;52.038;4.640;2024-01-06T12:02:50;101313.09;;;3.66;100.00
67457;BME280;54319;52.038;4.640;2024-01-06T12:05:21;101335.75;;;3.73;100.00
67457;BME280;54319;52.038;4.640;2024-01-06T12:07:54;101335.63;;;3.74;100.00
67457;BME280;54319;52.038;4.640;2024-01-06T12:10:22;101321.06;;;3.67;100.00
67457;BME280;54319;52.038;4.640;2024-01-06T12:12:55;101338.56;;;3.81;100.00
67457;BME280;54319;52.038;4.640;2024-01-06T12:15:25;101333.75;;;3.75;100.00
67457;BME280;54319;52.038;4.640;2024-01-06T12:17:52;101341.09;;;3.83;100.00
67457;BME280;54319;52.038;4.640;2024-01-06T12:20:19;101331.75;;;3.77;100.00
67457;BME280;54319;52.038;4.640;2024-01-06T12:22:46;101337.88;;;3.79;100.00
67457;BME280;54319;52.038;4.640;2024-01-06T12:25:14;101334.31;;;3.79;100.00
67457;BME280;54319;52.038;4.640;2024-01-06T12:27:42;101343.41;;;3.78;100.00
67457;BME280;54319;52.038;4.640;2024-01-06T12:30:12;101342.41;;;3.79;100.00
67457;BME280;54319;52.038;4.640;2024-01-06T12:32:42;101304.94;;;3.57;100.00
67457;BME280;54319;52.038;4.640;2024-01-06T12:35:09;101339.38;;;3.82;100.00
67457;BME280;54319;52.038;4.640;2024-01-06T12:37:43;101351.56;;;3.86;100.00
67457;BME280;54319;52.038;4.640;2024-01-06T12:40:12;101342.31;;;3.88;100.00
67457;BME280;54319;52.038;4.640;2024-01-06T12:42:40;101342.69;;;3.94;100.00
67457;BME280;54319;52.038;4.640;2024-01-06T12:45:08;101347.78;;;3.97;100.00
67457;BME280;54319;52.038;4.640;2024-01-06T12:47:35;101342.53;;;3.95;100.00
67457;BME280;54319;52.038;4.640;2024-01-06T12:50:04;101346.78;;;3.98;100.00
67457;BME280;54319;52.038;4.640;2024-01-06T12:52:30;101344.72;;;3.91;100.00